sensor_id;sensor_type;location;lat;lon;timestamp;temperature;humidity
5592;DHT22;2818;49.790;9.958;2022-12-13T00:01:28;-4.90;1.00
5592;DHT22;2818;49.790;9.958;2022-12-13T00:03:57;-4.90;1.00
5592;DHT22;2818;49.790;9.958;2022-12-13T00:06:25;-4.90;1.00
5592;DHT22;2818;49.790;9.958;2022-12-13T00:08:52;-5.00;1.00
5592;DHT22;2818;49.790;9.958;2022-12-13T00:11:20;-5.00;1.00
5592;DHT22;2818;49.790;9.958;2022-12-13T00:13:47;-5.00;1.00
5592;DHT22;2818;49.790;9.958;2022-12-13T00:16:16;-5.00;1.00
5592;DHT22;2818;49.790;9.958;2022-12-13T00:18:46;-5.00;1.00
5592;DHT22;2818;49.790;9.958;2022-12-13T00:21:17;-5.00;1.00
5592;DHT22;2818;49.790;9.958;2022-12-13T00:23:45;-5.10;1.00
5592;DHT22;2818;49.790;9.958;2022-12-13T00:26:15;-5.10;1.00
5592;DHT22;2818;49.790;9.958;2022-12-13T00:28:42;-5.10;1.00
5592;DHT22;2818;49.790;9.958;2022-12-13T00:31:09;-5.10;1.00
5592;DHT22;2818;49.790;9.958;2022-12-13T00:33:56;-5.10;1.00
5592;DHT22;2818;49.790;9.958;2022-12-13T00:36:23;-5.10;1.00
5592;DHT22;2818;49.790;9.958;2022-12-13T00:38:50;-5.20;1.00
5592;DHT22;2818;49.790;9.958;2022-12-13T00:41:35;-5.20;1.00
5592;DHT22;2818;49.790;9.958;2022-12-13T00:44:03;-5.20;1.00
5592;DHT22;2818;49.790;9.958;2022-12-13T00:46:30;-5.20;1.00
5592;DHT22;2818;49.790;9.958;2022-12-13T00:48:59;-5.20;1.00
5592;DHT22;2818;49.790;9.958;2022-12-13T00:51:29;-5.30;1.00
5592;DHT22;2818;49.790;9.958;2022-12-13T00:53:58;-5.30;1.00
5592;DHT22;2818;49.790;9.958;2022-12-13T00:56:27;-5.30;1.00
5592;DHT22;2818;49.790;9.958;2022-12-13T00:58:56;-5.30;1.00
5592;DHT22;2818;49.790;9.958;2022-12-13T01:01:25;-5.30;1.00
5592;DHT22;2818;49.790;9.958;2022-12-13T01:03:54;-5.40;1.00
5592;DHT22;2818;49.790;9.958;2022-12-13T01:06:30;-5.40;1.00
5592;DHT22;2818;49.790;9.958;2022-12-13T01:09:00;-5.40;1.00
5592;DHT22;2818;49.790;9.958;2022-12-13T01:11:27;-5.40;1.00
5592;DHT22;2818;49.790;9.958;2022-12-13T01:13:54;-5.40;1.00
5592;DHT22;2818;49.790;9.958;2022-12-13T01:16:21;-5.40;1.00
5592;DHT22;2818;49.790;9.958;2022-12-13T01:18:48;-5.40;1.00
5592;DHT22;2818;49.790;9.958;2022-12-13T01:21:17;-5.40;1.00
5592;DHT22;2818;49.790;9.958;2022-12-13T01:23:45;-5.50;1.00
5592;DHT22;2818;49.790;9.958;2022-12-13T01:26:17;-5.40;1.00
5592;DHT22;2818;49.790;9.958;2022-12-13T01:28:45;-5.40;1.00
5592;DHT22;2818;49.790;9.958;2022-12-13T01:31:15;-5.50;1.00
5592;DHT22;2818;49.790;9.958;2022-12-13T01:33:43;-5.50;1.00
5592;DHT22;2818;49.790;9.958;2022-12-13T01:36:13;-5.50;1.00
5592;DHT22;2818;49.790;9.958;2022-12-13T01:38:40;-5.50;1.00
5592;DHT22;2818;49.790;9.958;2022-12-13T01:41:09;-5.60;1.00
5592;DHT22;2818;49.790;9.958;2022-12-13T01:46:15;-5.60;1.00
5592;DHT22;2818;49.790;9.958;2022-12-13T01:51:50;-5.60;1.00
5592;DHT22;2818;49.790;9.958;2022-12-13T01:54:24;-5.60;1.00
5592;DHT22;2818;49.790;9.958;2022-12-13T01:57:02;-5.60;1.00
5592;DHT22;2818;49.790;9.958;2022-12-13T01:59:30;-5.60;1.00
5592;DHT22;2818;49.790;9.958;2022-12-13T02:01:58;-5.60;1.00
5592;DHT22;2818;49.790;9.958;2022-12-13T02:04:30;-5.60;1.00
5592;DHT22;2818;49.790;9.958;2022-12-13T02:06:59;-5.60;1.00
5592;DHT22;2818;49.790;9.958;2022-12-13T02:09:27;-5.60;1.00
5592;DHT22;2818;49.790;9.958;2022-12-13T02:11:54;-5.60;1.00
5592;DHT22;2818;49.790;9.958;2022-12-13T02:14:21;-5.60;1.00
5592;DHT22;2818;49.790;9.958;2022-12-13T02:19:59;-5.60;1.00
5592;DHT22;2818;49.790;9.958;2022-12-13T02:31:22;-5.70;1.00
5592;DHT22;2818;49.790;9.958;2022-12-13T02:34:19;-5.70;1.00
5592;DHT22;2818;49.790;9.958;2022-12-13T02:37:07;-5.70;1.00
5592;DHT22;2818;49.790;9.958;2022-12-13T02:40:22;-5.70;1.00
5592;DHT22;2818;49.790;9.958;2022-12-13T02:42:51;-5.80;1.00
5592;DHT22;2818;49.790;9.958;2022-12-13T02:45:30;-5.80;1.00
5592;DHT22;2818;49.790;9.958;2022-12-13T02:48:01;-5.80;1.00
5592;DHT22;2818;49.790;9.958;2022-12-13T02:50:30;-5.80;1.00
5592;DHT22;2818;49.790;9.958;2022-12-13T02:52:59;-5.80;1.00
5592;DHT22;2818;49.790;9.958;2022-12-13T02:55:27;-5.90;1.00
5592;DHT22;2818;49.790;9.958;2022-12-13T02:57:54;-5.90;1.00
5592;DHT22;2818;49.790;9.958;2022-12-13T03:00:36;-5.90;1.00
5592;DHT22;2818;49.790;9.958;2022-12-13T03:03:32;-5.90;1.00
5592;DHT22;2818;49.790;9.958;2022-12-13T03:14:44;-5.90;1.00
5592;DHT22;2818;49.790;9.958;2022-12-13T03:17:13;-6.00;1.00
5592;DHT22;2818;49.790;9.958;2022-12-13T03:19:42;-6.00;1.00
5592;DHT22;2818;49.790;9.958;2022-12-13T03:22:09;-6.00;1.00
5592;DHT22;2818;49.790;9.958;2022-12-13T03:24:36;-6.00;1.00
5592;DHT22;2818;49.790;9.958;2022-12-13T03:27:03;-6.00;1.00
5592;DHT22;2818;49.790;9.958;2022-12-13T03:29:30;-6.00;1.00
5592;DHT22;2818;49.790;9.958;2022-12-13T03:31:57;-6.00;1.00
5592;DHT22;2818;49.790;9.958;2022-12-13T03:34:24;-6.00;1.00
5592;DHT22;2818;49.790;9.958;2022-12-13T03:37:09;-6.00;1.00
5592;DHT22;2818;49.790;9.958;2022-12-13T03:39:36;-6.10;1.00
5592;DHT22;2818;49.790;9.958;2022-12-13T03:42:03;-6.10;1.00
5592;DHT22;2818;49.790;9.958;2022-12-13T03:44:30;-6.10;1.00
5592;DHT22;2818;49.790;9.958;2022-12-13T03:46:57;-6.10;1.00
5592;DHT22;2818;49.790;9.958;2022-12-13T03:49:26;-6.20;1.00
5592;DHT22;2818;49.790;9.958;2022-12-13T03:52:01;-6.20;1.00
5592;DHT22;2818;49.790;9.958;2022-12-13T03:54:28;-6.20;1.00
5592;DHT22;2818;49.790;9.958;2022-12-13T03:56:55;-6.20;1.00
5592;DHT22;2818;49.790;9.958;2022-12-13T03:59:22;-6.20;1.00
5592;DHT22;2818;49.790;9.958;2022-12-13T04:01:48;-6.20;1.00
5592;DHT22;2818;49.790;9.958;2022-12-13T04:04:16;-6.20;1.00
5592;DHT22;2818;49.790;9.958;2022-12-13T04:06:42;-6.20;1.00
5592;DHT22;2818;49.790;9.958;2022-12-13T04:09:09;-6.30;1.00
5592;DHT22;2818;49.790;9.958;2022-12-13T04:11:36;-6.30;1.00
5592;DHT22;2818;49.790;9.958;2022-12-13T04:14:21;-6.30;1.00
5592;DHT22;2818;49.790;9.958;2022-12-13T04:16:50;-6.30;1.00
5592;DHT22;2818;49.790;9.958;2022-12-13T04:19:17;-6.30;1.00
5592;DHT22;2818;49.790;9.958;2022-12-13T04:21:52;-6.30;1.00
5592;DHT22;2818;49.790;9.958;2022-12-13T04:24:21;-6.40;1.00
5592;DHT22;2818;49.790;9.958;2022-12-13T04:26:57;-6.40;1.00
5592;DHT22;2818;49.790;9.958;2022-12-13T04:29:26;-6.30;1.00
5592;DHT22;2818;49.790;9.958;2022-12-13T04:32:00;-6.40;1.00
5592;DHT22;2818;49.790;9.958;2022-12-13T04:34:27;-6.40;1.00
5592;DHT22;2818;49.790;9.958;2022-12-13T04:37:02;-6.40;1.00
5592;DHT22;2818;49.790;9.958;2022-12-13T04:39:29;-6.40;1.00
5592;DHT22;2818;49.790;9.958;2022-12-13T04:42:00;-6.40;1.00
5592;DHT22;2818;49.790;9.958;2022-12-13T04:44:27;-6.40;1.00
5592;DHT22;2818;49.790;9.958;2022-12-13T04:47:01;-6.40;1.00
5592;DHT22;2818;49.790;9.958;2022-12-13T04:49:29;-6.40;1.00
5592;DHT22;2818;49.790;9.958;2022-12-13T04:51:56;-6.40;1.00
5592;DHT22;2818;49.790;9.958;2022-12-13T04:54:28;-6.40;1.00
5592;DHT22;2818;49.790;9.958;2022-12-13T04:57:04;-6.50;1.00
5592;DHT22;2818;49.790;9.958;2022-12-13T04:59:31;-6.50;1.00
5592;DHT22;2818;49.790;9.958;2022-12-13T05:01:58;-6.40;1.00
5592;DHT22;2818;49.790;9.958;2022-12-13T05:04:25;-6.50;1.00
5592;DHT22;2818;49.790;9.958;2022-12-13T05:06:58;-6.50;1.00
5592;DHT22;2818;49.790;9.958;2022-12-13T05:09:25;-6.50;1.00
5592;DHT22;2818;49.790;9.958;2022-12-13T05:11:52;-6.50;1.00
5592;DHT22;2818;49.790;9.958;2022-12-13T05:14:30;-6.50;1.00
5592;DHT22;2818;49.790;9.958;2022-12-13T05:17:01;-6.50;1.00
5592;DHT22;2818;49.790;9.958;2022-12-13T05:19:28;-6.50;1.00
5592;DHT22;2818;49.790;9.958;2022-12-13T05:21:57;-6.50;1.00
5592;DHT22;2818;49.790;9.958;2022-12-13T05:24:28;-6.50;1.00
5592;DHT22;2818;49.790;9.958;2022-12-13T05:26:55;-6.60;1.00
5592;DHT22;2818;49.790;9.958;2022-12-13T05:29:22;-6.60;1.00
5592;DHT22;2818;49.790;9.958;2022-12-13T05:31:49;-6.60;1.00
5592;DHT22;2818;49.790;9.958;2022-12-13T05:34:16;-6.60;1.00
5592;DHT22;2818;49.790;9.958;2022-12-13T05:36:43;-6.60;1.00
5592;DHT22;2818;49.790;9.958;2022-12-13T05:39:10;-6.60;1.00
5592;DHT22;2818;49.790;9.958;2022-12-13T05:41:56;-6.60;1.00
5592;DHT22;2818;49.790;9.958;2022-12-13T05:44:29;-6.60;1.00
5592;DHT22;2818;49.790;9.958;2022-12-13T05:46:56;-6.60;1.00
5592;DHT22;2818;49.790;9.958;2022-12-13T05:49:22;-6.60;1.00
5592;DHT22;2818;49.790;9.958;2022-12-13T05:51:49;-6.60;1.00
5592;DHT22;2818;49.790;9.958;2022-12-13T05:54:16;-6.60;1.00
5592;DHT22;2818;49.790;9.958;2022-12-13T05:56:43;-6.60;1.00
5592;DHT22;2818;49.790;9.958;2022-12-13T05:59:10;-6.70;1.00
5592;DHT22;2818;49.790;9.958;2022-12-13T06:01:37;-6.70;1.00
5592;DHT22;2818;49.790;9.958;2022-12-13T06:04:10;-6.70;1.00
5592;DHT22;2818;49.790;9.958;2022-12-13T06:06:37;-6.70;1.00
5592;DHT22;2818;49.790;9.958;2022-12-13T06:09:04;-6.70;1.00
5592;DHT22;2818;49.790;9.958;2022-12-13T06:11:31;-6.70;1.00
5592;DHT22;2818;49.790;9.958;2022-12-13T06:13:58;-6.70;1.00
5592;DHT22;2818;49.790;9.958;2022-12-13T06:16:26;-6.70;1.00
5592;DHT22;2818;49.790;9.958;2022-12-13T06:18:55;-6.70;1.00
5592;DHT22;2818;49.790;9.958;2022-12-13T06:21:31;-6.70;1.00
5592;DHT22;2818;49.790;9.958;2022-12-13T06:24:13;-6.70;1.00
5592;DHT22;2818;49.790;9.958;2022-12-13T06:26:40;-6.80;1.00
5592;DHT22;2818;49.790;9.958;2022-12-13T06:29:07;-6.80;1.00
5592;DHT22;2818;49.790;9.958;2022-12-13T06:31:36;-6.80;1.00
5592;DHT22;2818;49.790;9.958;2022-12-13T06:34:03;-6.80;1.00
5592;DHT22;2818;49.790;9.958;2022-12-13T06:36:41;-6.80;1.00
5592;DHT22;2818;49.790;9.958;2022-12-13T06:39:08;-6.80;1.00
5592;DHT22;2818;49.790;9.958;2022-12-13T06:41:35;-6.80;1.00
5592;DHT22;2818;49.790;9.958;2022-12-13T06:44:03;-6.80;1.00
5592;DHT22;2818;49.790;9.958;2022-12-13T06:46:30;-6.80;1.00
5592;DHT22;2818;49.790;9.958;2022-12-13T06:48:58;-6.80;1.00
5592;DHT22;2818;49.790;9.958;2022-12-13T06:51:25;-6.80;1.00
5592;DHT22;2818;49.790;9.958;2022-12-13T06:53:59;-6.80;1.00
5592;DHT22;2818;49.790;9.958;2022-12-13T06:56:27;-6.80;1.00
5592;DHT22;2818;49.790;9.958;2022-12-13T06:58:54;-6.90;1.00
5592;DHT22;2818;49.790;9.958;2022-12-13T07:01:28;-6.90;1.00
5592;DHT22;2818;49.790;9.958;2022-12-13T07:04:04;-6.90;1.00
5592;DHT22;2818;49.790;9.958;2022-12-13T07:06:51;-6.90;1.00
5592;DHT22;2818;49.790;9.958;2022-12-13T07:09:18;-6.90;1.00
5592;DHT22;2818;49.790;9.958;2022-12-13T07:11:45;-6.90;1.00
5592;DHT22;2818;49.790;9.958;2022-12-13T07:14:17;-7.00;1.00
5592;DHT22;2818;49.790;9.958;2022-12-13T07:16:44;-6.90;1.00
5592;DHT22;2818;49.790;9.958;2022-12-13T07:19:11;-6.90;1.00
5592;DHT22;2818;49.790;9.958;2022-12-13T07:21:50;-6.90;1.00
5592;DHT22;2818;49.790;9.958;2022-12-13T07:24:17;-6.80;1.00
5592;DHT22;2818;49.790;9.958;2022-12-13T07:26:44;-6.80;1.00
5592;DHT22;2818;49.790;9.958;2022-12-13T07:29:10;-6.80;1.00
5592;DHT22;2818;49.790;9.958;2022-12-13T07:31:37;-6.80;1.00
5592;DHT22;2818;49.790;9.958;2022-12-13T07:34:04;-6.80;1.00
5592;DHT22;2818;49.790;9.958;2022-12-13T07:36:31;-6.80;1.00
5592;DHT22;2818;49.790;9.958;2022-12-13T07:38:58;-6.70;1.00
5592;DHT22;2818;49.790;9.958;2022-12-13T07:41:25;-6.80;1.00
5592;DHT22;2818;49.790;9.958;2022-12-13T07:43:53;-6.70;1.00
5592;DHT22;2818;49.790;9.958;2022-12-13T07:46:22;-6.70;1.00
5592;DHT22;2818;49.790;9.958;2022-12-13T07:49:04;-6.70;1.00
5592;DHT22;2818;49.790;9.958;2022-12-13T07:51:34;-6.60;1.00
5592;DHT22;2818;49.790;9.958;2022-12-13T07:54:01;-6.60;1.00
5592;DHT22;2818;49.790;9.958;2022-12-13T07:56:33;-6.60;1.00
5592;DHT22;2818;49.790;9.958;2022-12-13T07:59:00;-6.50;1.00
5592;DHT22;2818;49.790;9.958;2022-12-13T08:01:27;-6.50;1.00
5592;DHT22;2818;49.790;9.958;2022-12-13T08:03:54;-6.50;1.00
5592;DHT22;2818;49.790;9.958;2022-12-13T08:06:21;-6.50;1.00
5592;DHT22;2818;49.790;9.958;2022-12-13T08:08:48;-6.40;1.00
5592;DHT22;2818;49.790;9.958;2022-12-13T08:11:16;-6.30;1.00
5592;DHT22;2818;49.790;9.958;2022-12-13T08:13:43;-6.30;1.00
5592;DHT22;2818;49.790;9.958;2022-12-13T08:16:12;-6.30;1.00
5592;DHT22;2818;49.790;9.958;2022-12-13T08:18:55;-6.10;1.00
5592;DHT22;2818;49.790;9.958;2022-12-13T08:21:38;-6.00;1.00
5592;DHT22;2818;49.790;9.958;2022-12-13T08:24:29;-5.80;1.00
5592;DHT22;2818;49.790;9.958;2022-12-13T08:27:00;-5.60;99.90
5592;DHT22;2818;49.790;9.958;2022-12-13T08:29:29;-5.30;99.90
5592;DHT22;2818;49.790;9.958;2022-12-13T08:32:07;-4.70;1.00
5592;DHT22;2818;49.790;9.958;2022-12-13T08:34:34;-3.80;99.90
5592;DHT22;2818;49.790;9.958;2022-12-13T08:37:01;-3.20;1.00
5592;DHT22;2818;49.790;9.958;2022-12-13T08:39:31;-2.80;1.00
5592;DHT22;2818;49.790;9.958;2022-12-13T08:44:51;-1.80;99.90
5592;DHT22;2818;49.790;9.958;2022-12-13T08:47:20;-1.30;1.00
5592;DHT22;2818;49.790;9.958;2022-12-13T08:49:57;-1.00;1.00
5592;DHT22;2818;49.790;9.958;2022-12-13T08:52:33;-0.30;1.00
5592;DHT22;2818;49.790;9.958;2022-12-13T08:55:07;0.50;1.00
5592;DHT22;2818;49.790;9.958;2022-12-13T08:57:38;1.40;99.90
5592;DHT22;2818;49.790;9.958;2022-12-13T09:00:09;2.50;99.90
5592;DHT22;2818;49.790;9.958;2022-12-13T09:02:37;3.60;99.90
5592;DHT22;2818;49.790;9.958;2022-12-13T09:05:06;4.40;99.90
5592;DHT22;2818;49.790;9.958;2022-12-13T09:07:34;5.20;99.90
5592;DHT22;2818;49.790;9.958;2022-12-13T09:10:02;6.10;92.40
5592;DHT22;2818;49.790;9.958;2022-12-13T09:12:50;6.70;51.70
5592;DHT22;2818;49.790;9.958;2022-12-13T09:15:17;6.90;28.70
5592;DHT22;2818;49.790;9.958;2022-12-13T09:17:48;7.40;22.00
5592;DHT22;2818;49.790;9.958;2022-12-13T09:20:18;7.70;15.50
5592;DHT22;2818;49.790;9.958;2022-12-13T09:22:56;7.80;12.40
5592;DHT22;2818;49.790;9.958;2022-12-13T09:25:28;7.50;5.60
5592;DHT22;2818;49.790;9.958;2022-12-13T09:28:05;7.40;3.80
5592;DHT22;2818;49.790;9.958;2022-12-13T09:30:33;7.40;2.30
5592;DHT22;2818;49.790;9.958;2022-12-13T09:33:00;6.50;1.00
5592;DHT22;2818;49.790;9.958;2022-12-13T09:35:47;6.00;1.00
5592;DHT22;2818;49.790;9.958;2022-12-13T09:38:14;5.20;1.00
5592;DHT22;2818;49.790;9.958;2022-12-13T09:40:43;4.90;2.30
5592;DHT22;2818;49.790;9.958;2022-12-13T09:43:21;5.00;6.60
5592;DHT22;2818;49.790;9.958;2022-12-13T09:46:00;5.10;10.90
5592;DHT22;2818;49.790;9.958;2022-12-13T09:48:38;4.70;12.10
5592;DHT22;2818;49.790;9.958;2022-12-13T09:51:14;4.50;27.70
5592;DHT22;2818;49.790;9.958;2022-12-13T09:53:54;4.30;24.50
5592;DHT22;2818;49.790;9.958;2022-12-13T09:56:21;4.00;30.00
5592;DHT22;2818;49.790;9.958;2022-12-13T09:58:51;3.90;37.10
5592;DHT22;2818;49.790;9.958;2022-12-13T10:01:19;4.40;44.10
5592;DHT22;2818;49.790;9.958;2022-12-13T10:03:51;4.00;42.90
5592;DHT22;2818;49.790;9.958;2022-12-13T10:06:21;3.50;46.30
5592;DHT22;2818;49.790;9.958;2022-12-13T10:08:55;3.90;61.80
5592;DHT22;2818;49.790;9.958;2022-12-13T10:11:24;4.10;69.80
5592;DHT22;2818;49.790;9.958;2022-12-13T10:19:38;4.20;71.50
5592;DHT22;2818;49.790;9.958;2022-12-13T10:22:16;4.00;77.90
5592;DHT22;2818;49.790;9.958;2022-12-13T10:24:53;4.20;80.80
5592;DHT22;2818;49.790;9.958;2022-12-13T10:30:05;4.30;83.10
5592;DHT22;2818;49.790;9.958;2022-12-13T10:35:28;4.90;74.90
5592;DHT22;2818;49.790;9.958;2022-12-13T10:38:41;4.80;70.80
5592;DHT22;2818;49.790;9.958;2022-12-13T10:40:47;5.10;68.10
5592;DHT22;2818;49.790;9.958;2022-12-13T10:43:16;4.90;62.80
5592;DHT22;2818;49.790;9.958;2022-12-13T10:48:38;4.60;70.40
5592;DHT22;2818;49.790;9.958;2022-12-13T10:51:11;4.50;73.60
5592;DHT22;2818;49.790;9.958;2022-12-13T10:53:44;4.90;86.30
5592;DHT22;2818;49.790;9.958;2022-12-13T10:56:14;5.20;81.90
5592;DHT22;2818;49.790;9.958;2022-12-13T10:59:07;5.30;70.00
5592;DHT22;2818;49.790;9.958;2022-12-13T11:01:42;5.30;60.50
5592;DHT22;2818;49.790;9.958;2022-12-13T11:07:00;4.90;69.50
5592;DHT22;2818;49.790;9.958;2022-12-13T11:09:32;5.30;68.30
5592;DHT22;2818;49.790;9.958;2022-12-13T11:12:13;5.30;62.60
5592;DHT22;2818;49.790;9.958;2022-12-13T11:14:53;5.50;57.10
5592;DHT22;2818;49.790;9.958;2022-12-13T11:17:23;5.70;57.80
5592;DHT22;2818;49.790;9.958;2022-12-13T11:19:55;5.80;55.20
5592;DHT22;2818;49.790;9.958;2022-12-13T11:22:24;5.70;51.90
5592;DHT22;2818;49.790;9.958;2022-12-13T11:25:35;5.80;51.70
5592;DHT22;2818;49.790;9.958;2022-12-13T11:28:19;6.00;45.60
5592;DHT22;2818;49.790;9.958;2022-12-13T11:31:27;5.90;35.70
5592;DHT22;2818;49.790;9.958;2022-12-13T11:39:23;5.90;38.60
5592;DHT22;2818;49.790;9.958;2022-12-13T11:42:04;5.90;33.70
5592;DHT22;2818;49.790;9.958;2022-12-13T11:47:34;6.40;30.60
5592;DHT22;2818;49.790;9.958;2022-12-13T11:50:11;6.30;29.50
5592;DHT22;2818;49.790;9.958;2022-12-13T11:52:52;6.20;26.20
5592;DHT22;2818;49.790;9.958;2022-12-13T11:55:46;6.10;24.80
5592;DHT22;2818;49.790;9.958;2022-12-13T11:58:21;6.10;27.30
5592;DHT22;2818;49.790;9.958;2022-12-13T12:01:13;6.30;27.70
5592;DHT22;2818;49.790;9.958;2022-12-13T12:03:55;5.90;27.40
5592;DHT22;2818;49.790;9.958;2022-12-13T12:06:34;5.70;29.00
5592;DHT22;2818;49.790;9.958;2022-12-13T12:09:13;5.70;33.00
5592;DHT22;2818;49.790;9.958;2022-12-13T12:14:43;5.80;39.70
5592;DHT22;2818;49.790;9.958;2022-12-13T12:17:14;5.70;39.50
5592;DHT22;2818;49.790;9.958;2022-12-13T12:19:44;5.80;39.80
5592;DHT22;2818;49.790;9.958;2022-12-13T12:25:13;6.10;40.70
5592;DHT22;2818;49.790;9.958;2022-12-13T12:27:48;6.10;37.70
5592;DHT22;2818;49.790;9.958;2022-12-13T12:30:23;6.10;31.50
5592;DHT22;2818;49.790;9.958;2022-12-13T12:43:43;5.70;29.70
5592;DHT22;2818;49.790;9.958;2022-12-13T12:49:04;5.80;33.20
5592;DHT22;2818;49.790;9.958;2022-12-13T12:52:11;5.80;38.40
5592;DHT22;2818;49.790;9.958;2022-12-13T13:00:21;6.00;38.10
5592;DHT22;2818;49.790;9.958;2022-12-13T13:03:18;5.80;34.40
5592;DHT22;2818;49.790;9.958;2022-12-13T13:08:58;5.60;35.00
5592;DHT22;2818;49.790;9.958;2022-12-13T13:11:38;5.20;37.00
5592;DHT22;2818;49.790;9.958;2022-12-13T13:14:34;5.00;37.90
5592;DHT22;2818;49.790;9.958;2022-12-13T13:20:19;4.50;46.70
5592;DHT22;2818;49.790;9.958;2022-12-13T13:22:46;4.50;53.70
5592;DHT22;2818;49.790;9.958;2022-12-13T13:25:34;4.30;57.40
5592;DHT22;2818;49.790;9.958;2022-12-13T13:28:21;4.10;65.30
5592;DHT22;2818;49.790;9.958;2022-12-13T13:31:03;4.10;75.70
5592;DHT22;2818;49.790;9.958;2022-12-13T13:33:57;4.10;84.00
5592;DHT22;2818;49.790;9.958;2022-12-13T13:36:44;4.20;89.80
5592;DHT22;2818;49.790;9.958;2022-12-13T13:39:16;4.10;91.70
5592;DHT22;2818;49.790;9.958;2022-12-13T13:50:09;3.90;99.90
5592;DHT22;2818;49.790;9.958;2022-12-13T14:09:59;2.40;99.90
5592;DHT22;2818;49.790;9.958;2022-12-13T14:24:33;1.70;99.90
5592;DHT22;2818;49.790;9.958;2022-12-13T14:29:52;1.30;99.90
5592;DHT22;2818;49.790;9.958;2022-12-13T14:32:26;1.20;1.00
5592;DHT22;2818;49.790;9.958;2022-12-13T14:34:55;1.00;1.00
5592;DHT22;2818;49.790;9.958;2022-12-13T14:37:33;1.00;1.00
5592;DHT22;2818;49.790;9.958;2022-12-13T14:40:21;0.80;1.00
5592;DHT22;2818;49.790;9.958;2022-12-13T14:42:51;0.70;1.00
5592;DHT22;2818;49.790;9.958;2022-12-13T14:45:22;0.50;1.00
5592;DHT22;2818;49.790;9.958;2022-12-13T14:47:54;0.40;1.00
5592;DHT22;2818;49.790;9.958;2022-12-13T14:50:25;0.30;1.00
5592;DHT22;2818;49.790;9.958;2022-12-13T14:52:53;0.10;90.40
5592;DHT22;2818;49.790;9.958;2022-12-13T14:57:55;-0.10;99.90
5592;DHT22;2818;49.790;9.958;2022-12-13T15:02:55;-0.20;1.00
5592;DHT22;2818;49.790;9.958;2022-12-13T15:05:28;-0.30;1.00
5592;DHT22;2818;49.790;9.958;2022-12-13T15:07:56;-0.40;1.00
5592;DHT22;2818;49.790;9.958;2022-12-13T15:10:37;-0.50;1.00
5592;DHT22;2818;49.790;9.958;2022-12-13T15:13:06;-0.50;1.00
5592;DHT22;2818;49.790;9.958;2022-12-13T15:15:39;-0.60;1.00
5592;DHT22;2818;49.790;9.958;2022-12-13T15:20:39;-0.70;99.90
5592;DHT22;2818;49.790;9.958;2022-12-13T15:25:38;-0.80;99.90
5592;DHT22;2818;49.790;9.958;2022-12-13T15:28:05;-0.90;99.90
5592;DHT22;2818;49.790;9.958;2022-12-13T15:30:34;-0.90;99.90
5592;DHT22;2818;49.790;9.958;2022-12-13T15:33:16;-1.00;1.00
5592;DHT22;2818;49.790;9.958;2022-12-13T15:35:45;-1.00;1.00
5592;DHT22;2818;49.790;9.958;2022-12-13T15:38:17;-1.10;1.00
5592;DHT22;2818;49.790;9.958;2022-12-13T15:40:55;-1.10;1.00
5592;DHT22;2818;49.790;9.958;2022-12-13T15:43:40;-1.10;1.00
5592;DHT22;2818;49.790;9.958;2022-12-13T15:46:08;-1.10;1.00
5592;DHT22;2818;49.790;9.958;2022-12-13T15:48:41;-1.20;1.00
5592;DHT22;2818;49.790;9.958;2022-12-13T15:51:17;-1.30;1.00
5592;DHT22;2818;49.790;9.958;2022-12-13T15:54:00;-1.40;1.00
5592;DHT22;2818;49.790;9.958;2022-12-13T15:56:33;-1.40;11.80
5592;DHT22;2818;49.790;9.958;2022-12-13T15:59:01;-1.40;99.90
5592;DHT22;2818;49.790;9.958;2022-12-13T16:01:35;-1.50;99.90
5592;DHT22;2818;49.790;9.958;2022-12-13T16:04:03;-1.50;99.90
5592;DHT22;2818;49.790;9.958;2022-12-13T16:06:32;-1.50;99.90
5592;DHT22;2818;49.790;9.958;2022-12-13T16:09:02;-1.50;99.90
5592;DHT22;2818;49.790;9.958;2022-12-13T16:11:31;-1.50;99.90
5592;DHT22;2818;49.790;9.958;2022-12-13T16:16:53;-1.60;1.00
5592;DHT22;2818;49.790;9.958;2022-12-13T16:19:20;-1.60;1.00
5592;DHT22;2818;49.790;9.958;2022-12-13T16:21:47;-1.60;1.00
5592;DHT22;2818;49.790;9.958;2022-12-13T16:24:14;-1.60;1.00
5592;DHT22;2818;49.790;9.958;2022-12-13T16:26:46;-1.70;99.90
5592;DHT22;2818;49.790;9.958;2022-12-13T16:29:15;-1.70;99.90
5592;DHT22;2818;49.790;9.958;2022-12-13T16:31:42;-1.70;1.00
5592;DHT22;2818;49.790;9.958;2022-12-13T16:34:13;-1.80;1.00
5592;DHT22;2818;49.790;9.958;2022-12-13T16:36:44;-1.80;1.00
5592;DHT22;2818;49.790;9.958;2022-12-13T16:39:13;-1.80;1.00
5592;DHT22;2818;49.790;9.958;2022-12-13T16:41:43;-1.80;99.90
5592;DHT22;2818;49.790;9.958;2022-12-13T16:44:35;-1.90;99.90
5592;DHT22;2818;49.790;9.958;2022-12-13T16:47:08;-1.90;99.90
5592;DHT22;2818;49.790;9.958;2022-12-13T16:49:52;-2.00;99.90
5592;DHT22;2818;49.790;9.958;2022-12-13T16:52:19;-1.90;1.00
5592;DHT22;2818;49.790;9.958;2022-12-13T16:54:47;-2.00;1.00
5592;DHT22;2818;49.790;9.958;2022-12-13T16:57:14;-2.00;1.00
5592;DHT22;2818;49.790;9.958;2022-12-13T16:59:41;-2.00;94.70
5592;DHT22;2818;49.790;9.958;2022-12-13T17:02:15;-2.00;90.00
5592;DHT22;2818;49.790;9.958;2022-12-13T17:04:42;-2.00;92.00
5592;DHT22;2818;49.790;9.958;2022-12-13T17:07:09;-2.10;99.90
5592;DHT22;2818;49.790;9.958;2022-12-13T17:09:36;-2.10;99.90
5592;DHT22;2818;49.790;9.958;2022-12-13T17:12:03;-2.20;1.00
5592;DHT22;2818;49.790;9.958;2022-12-13T17:14:30;-2.20;1.00
5592;DHT22;2818;49.790;9.958;2022-12-13T17:16:56;-2.30;1.00
5592;DHT22;2818;49.790;9.958;2022-12-13T17:19:23;-2.30;1.00
5592;DHT22;2818;49.790;9.958;2022-12-13T17:21:50;-2.30;99.90
5592;DHT22;2818;49.790;9.958;2022-12-13T17:24:18;-2.30;99.90
5592;DHT22;2818;49.790;9.958;2022-12-13T17:26:44;-2.30;99.90
5592;DHT22;2818;49.790;9.958;2022-12-13T17:29:19;-2.40;99.90
5592;DHT22;2818;49.790;9.958;2022-12-13T17:31:46;-2.40;1.00
5592;DHT22;2818;49.790;9.958;2022-12-13T17:34:13;-2.50;50.00
5592;DHT22;2818;49.790;9.958;2022-12-13T17:36:40;-2.60;1.00
5592;DHT22;2818;49.790;9.958;2022-12-13T17:39:09;-2.60;1.00
5592;DHT22;2818;49.790;9.958;2022-12-13T17:41:37;-2.70;99.90
5592;DHT22;2818;49.790;9.958;2022-12-13T17:44:04;-2.70;1.00
5592;DHT22;2818;49.790;9.958;2022-12-13T17:46:32;-2.80;1.00
5592;DHT22;2818;49.790;9.958;2022-12-13T17:49:00;-2.80;1.00
5592;DHT22;2818;49.790;9.958;2022-12-13T17:51:27;-2.80;27.80
5592;DHT22;2818;49.790;9.958;2022-12-13T17:53:55;-2.90;99.90
5592;DHT22;2818;49.790;9.958;2022-12-13T17:56:21;-2.90;99.90
5592;DHT22;2818;49.790;9.958;2022-12-13T17:58:48;-2.90;99.90
5592;DHT22;2818;49.790;9.958;2022-12-13T18:01:18;-2.90;1.00
5592;DHT22;2818;49.790;9.958;2022-12-13T18:03:45;-2.90;99.90
5592;DHT22;2818;49.790;9.958;2022-12-13T18:06:14;-2.90;1.00
5592;DHT22;2818;49.790;9.958;2022-12-13T18:08:41;-3.00;99.90
5592;DHT22;2818;49.790;9.958;2022-12-13T18:11:11;-3.00;99.90
5592;DHT22;2818;49.790;9.958;2022-12-13T18:13:58;-2.90;1.00
5592;DHT22;2818;49.790;9.958;2022-12-13T18:16:25;-2.90;99.90
5592;DHT22;2818;49.790;9.958;2022-12-13T18:19:03;-2.90;99.90
5592;DHT22;2818;49.790;9.958;2022-12-13T18:21:31;-2.90;99.90
5592;DHT22;2818;49.790;9.958;2022-12-13T18:23:59;-2.90;99.90
5592;DHT22;2818;49.790;9.958;2022-12-13T18:26:26;-2.90;99.90
5592;DHT22;2818;49.790;9.958;2022-12-13T18:28:53;-2.90;1.00
5592;DHT22;2818;49.790;9.958;2022-12-13T18:31:21;-2.90;99.90
5592;DHT22;2818;49.790;9.958;2022-12-13T18:33:50;-2.90;99.90
5592;DHT22;2818;49.790;9.958;2022-12-13T18:36:19;-2.90;66.30
5592;DHT22;2818;49.790;9.958;2022-12-13T18:38:46;-2.90;1.00
5592;DHT22;2818;49.790;9.958;2022-12-13T18:41:19;-2.90;1.00
5592;DHT22;2818;49.790;9.958;2022-12-13T18:43:47;-2.90;99.90
5592;DHT22;2818;49.790;9.958;2022-12-13T18:46:14;-2.80;1.00
5592;DHT22;2818;49.790;9.958;2022-12-13T18:48:41;-2.80;1.00
5592;DHT22;2818;49.790;9.958;2022-12-13T18:51:09;-2.80;1.00
5592;DHT22;2818;49.790;9.958;2022-12-13T18:53:37;-2.80;99.90
5592;DHT22;2818;49.790;9.958;2022-12-13T18:56:06;-2.80;1.00
5592;DHT22;2818;49.790;9.958;2022-12-13T18:58:41;-2.80;99.90
5592;DHT22;2818;49.790;9.958;2022-12-13T19:01:10;-2.80;99.90
5592;DHT22;2818;49.790;9.958;2022-12-13T19:03:37;-2.80;99.90
5592;DHT22;2818;49.790;9.958;2022-12-13T19:06:05;-2.80;92.90